sensor_id;sensor_type;location;lat;lon;timestamp;pressure;altitude;pressure_sealevel;temperature;humidity
60307;BME280;46155;52.364;6.580;2024-01-10T04:01:22;102925.28;;;-5.80;100.00
60307;BME280;46155;52.364;6.580;2024-01-10T04:03:47;102922.25;;;-5.83;100.00
60307;BME280;46155;52.364;6.580;2024-01-10T04:06:12;102912.44;;;-5.86;100.00
60307;BME280;46155;52.364;6.580;2024-01-10T04:08:37;102906.91;;;-5.83;100.00
60307;BME280;46155;52.364;6.580;2024-01-10T04:11:03;102898.03;;;-5.85;100.00
60307;BME280;46155;52.364;6.580;2024-01-10T04:13:28;102895.03;;;-5.83;100.00
60307;BME280;46155;52.364;6.580;2024-01-10T04:15:54;102891.50;;;-5.89;100.00
60307;BME280;46155;52.364;6.580;2024-01-10T04:18:19;102886.81;;;-5.92;100.00
60307;BME280;46155;52.364;6.580;2024-01-10T04:20:44;102897.16;;;-5.80;100.00
60307;BME280;46155;52.364;6.580;2024-01-10T04:23:10;102892.94;;;-5.80;100.00
60307;BME280;46155;52.364;6.580;2024-01-10T04:25:35;102899.03;;;-5.79;100.00
60307;BME280;46155;52.364;6.580;2024-01-10T04:28:00;102899.69;;;-5.80;100.00
60307;BME280;46155;52.364;6.580;2024-01-10T04:30:26;102898.53;;;-5.82;100.00
60307;BME280;46155;52.364;6.580;2024-01-10T04:32:52;102902.25;;;-5.80;100.00
60307;BME280;46155;52.364;6.580;2024-01-10T04:35:17;102891.31;;;-5.85;100.00
60307;BME280;46155;52.364;6.580;2024-01-10T04:37:42;102894.59;;;-5.80;100.00
60307;BME280;46155;52.364;6.580;2024-01-10T04:40:08;102888.56;;;-5.81;100.00
60307;BME280;46155;52.364;6.580;2024-01-10T04:42:34;102887.78;;;-5.85;100.00
60307;BME280;46155;52.364;6.580;2024-01-10T04:44:59;102892.66;;;-5.87;100.00
60307;BME280;46155;52.364;6.580;2024-01-10T04:47:24;102884.06;;;-5.88;100.00
60307;BME280;46155;52.364;6.580;2024-01-10T04:49:50;102878.97;;;-5.88;100.00
60307;BME280;46155;52.364;6.580;2024-01-10T04:52:15;102877.56;;;-5.85;100.00
60307;BME280;46155;52.364;6.580;2024-01-10T04:54:40;102884.56;;;-5.84;100.00
60307;BME280;46155;52.364;6.580;2024-01-10T04:57:06;102878.06;;;-5.82;100.00
60307;BME280;46155;52.364;6.580;2024-01-10T04:59:32;102874.13;;;-5.80;100.00
60307;BME280;46155;52.364;6.580;2024-01-10T05:01:57;102884.84;;;-5.77;100.00
60307;BME280;46155;52.364;6.580;2024-01-10T05:04:23;102880.91;;;-5.75;99.63
60307;BME280;46155;52.364;6.580;2024-01-10T05:06:48;102877.34;;;-5.81;99.19
60307;BME280;46155;52.364;6.580;2024-01-10T05:09:13;102884.16;;;-5.76;99.16
60307;BME280;46155;52.364;6.580;2024-01-10T05:11:39;102880.66;;;-5.77;98.98
60307;BME280;46155;52.364;6.580;2024-01-10T05:14:04;102883.72;;;-5.74;98.57
60307;BME280;46155;52.364;6.580;2024-01-10T05:16:29;102891.44;;;-5.68;98.20
60307;BME280;46155;52.364;6.580;2024-01-10T05:18:56;102887.47;;;-5.66;97.86
60307;BME280;46155;52.364;6.580;2024-01-10T05:21:22;102890.03;;;-5.66;97.35
60307;BME280;46155;52.364;6.580;2024-01-10T05:23:47;102875.84;;;-5.69;97.23
60307;BME280;46155;52.364;6.580;2024-01-10T05:26:14;102886.09;;;-5.64;98.03
60307;BME280;46155;52.364;6.580;2024-01-10T05:28:39;102879.09;;;-5.65;97.40
60307;BME280;46155;52.364;6.580;2024-01-10T05:31:04;102887.50;;;-5.60;97.37
60307;BME280;46155;52.364;6.580;2024-01-10T05:33:30;102887.25;;;-5.62;97.53
60307;BME280;46155;52.364;6.580;2024-01-10T05:35:56;102890.81;;;-5.56;97.97
60307;BME280;46155;52.364;6.580;2024-01-10T05:38:21;102891.97;;;-5.54;96.45
60307;BME280;46155;52.364;6.580;2024-01-10T05:40:46;102890.84;;;-5.50;96.85
60307;BME280;46155;52.364;6.580;2024-01-10T05:43:12;102881.75;;;-5.54;96.44
60307;BME280;46155;52.364;6.580;2024-01-10T05:45:38;102887.75;;;-5.59;96.05
60307;BME280;46155;52.364;6.580;2024-01-10T05:48:03;102887.47;;;-5.66;96.20
60307;BME280;46155;52.364;6.580;2024-01-10T05:50:29;102893.00;;;-5.74;96.49
60307;BME280;46155;52.364;6.580;2024-01-10T05:52:55;102885.03;;;-5.81;97.33
60307;BME280;46155;52.364;6.580;2024-01-10T05:55:20;102885.75;;;-5.82;96.72
60307;BME280;46155;52.364;6.580;2024-01-10T05:57:46;102873.91;;;-5.76;96.65
60307;BME280;46155;52.364;6.580;2024-01-10T06:00:12;102864.09;;;-5.84;96.53
60307;BME280;46155;52.364;6.580;2024-01-10T06:02:41;102866.16;;;-5.88;98.06
60307;BME280;46155;52.364;6.580;2024-01-10T06:05:10;102861.97;;;-5.87;96.97
60307;BME280;46155;52.364;6.580;2024-01-10T06:07:36;102859.38;;;-5.93;97.88
60307;BME280;46155;52.364;6.580;2024-01-10T06:10:02;102859.63;;;-5.91;95.98
60307;BME280;46155;52.364;6.580;2024-01-10T06:12:28;102847.97;;;-5.95;95.83
60307;BME280;46155;52.364;6.580;2024-01-10T06:14:53;102855.25;;;-5.86;95.35
60307;BME280;46155;52.364;6.580;2024-01-10T06:17:19;102851.97;;;-5.85;95.78
60307;BME280;46155;52.364;6.580;2024-01-10T06:19:44;102856.63;;;-5.89;94.29
60307;BME280;46155;52.364;6.580;2024-01-10T06:22:09;102857.34;;;-5.90;94.01
60307;BME280;46155;52.364;6.580;2024-01-10T06:24:36;102861.28;;;-5.86;92.40
60307;BME280;46155;52.364;6.580;2024-01-10T06:27:03;102853.72;;;-5.69;95.73
60307;BME280;46155;52.364;6.580;2024-01-10T06:29:29;102865.34;;;-5.33;93.14
60307;BME280;46155;52.364;6.580;2024-01-10T06:31:54;102856.00;;;-5.38;89.99
60307;BME280;46155;52.364;6.580;2024-01-10T06:34:21;102853.63;;;-5.48;88.97
60307;BME280;46155;52.364;6.580;2024-01-10T06:36:47;102854.97;;;-5.56;89.02
60307;BME280;46155;52.364;6.580;2024-01-10T06:39:13;102861.94;;;-5.55;89.45
60307;BME280;46155;52.364;6.580;2024-01-10T06:41:39;102861.00;;;-5.61;89.55
60307;BME280;46155;52.364;6.580;2024-01-10T06:44:04;102863.31;;;-5.62;90.07
60307;BME280;46155;52.364;6.580;2024-01-10T06:46:31;102860.22;;;-5.22;93.53
60307;BME280;46155;52.364;6.580;2024-01-10T06:48:57;102851.34;;;-5.35;89.73
60307;BME280;46155;52.364;6.580;2024-01-10T06:51:23;102849.63;;;-5.51;89.99
60307;BME280;46155;52.364;6.580;2024-01-10T06:53:48;102868.72;;;-5.49;90.11
60307;BME280;46155;52.364;6.580;2024-01-10T06:56:13;102866.59;;;-5.58;90.50
60307;BME280;46155;52.364;6.580;2024-01-10T06:58:39;102862.88;;;-5.60;91.92
60307;BME280;46155;52.364;6.580;2024-01-10T07:01:04;102865.16;;;-5.67;90.84
60307;BME280;46155;52.364;6.580;2024-01-10T07:03:31;102867.00;;;-5.66;91.81
60307;BME280;46155;52.364;6.580;2024-01-10T07:05:56;102876.28;;;-5.72;92.63
60307;BME280;46155;52.364;6.580;2024-01-10T07:08:22;102872.53;;;-5.74;93.04
60307;BME280;46155;52.364;6.580;2024-01-10T07:10:47;102865.09;;;-5.78;94.21
60307;BME280;46155;52.364;6.580;2024-01-10T07:13:13;102864.56;;;-5.81;94.59
60307;BME280;46155;52.364;6.580;2024-01-10T07:15:38;102875.50;;;-5.82;95.65
60307;BME280;46155;52.364;6.580;2024-01-10T07:18:04;102875.50;;;-5.82;95.62
60307;BME280;46155;52.364;6.580;2024-01-10T07:20:29;102868.75;;;-5.82;95.97
60307;BME280;46155;52.364;6.580;2024-01-10T07:22:54;102875.97;;;-5.85;96.65
60307;BME280;46155;52.364;6.580;2024-01-10T07:25:20;102868.72;;;-5.88;96.55
60307;BME280;46155;52.364;6.580;2024-01-10T07:27:47;102871.28;;;-5.88;97.09
60307;BME280;46155;52.364;6.580;2024-01-10T07:30:12;102867.13;;;-5.81;96.74
60307;BME280;46155;52.364;6.580;2024-01-10T07:32:44;102879.00;;;-5.82;95.86
60307;BME280;46155;52.364;6.580;2024-01-10T07:35:11;102879.00;;;-5.82;95.48
60307;BME280;46155;52.364;6.580;2024-01-10T07:37:38;102865.00;;;-5.90;94.79
60307;BME280;46155;52.364;6.580;2024-01-10T07:40:05;102869.88;;;-5.85;93.94
60307;BME280;46155;52.364;6.580;2024-01-10T07:42:32;102877.13;;;-5.83;93.65
60307;BME280;46155;52.364;6.580;2024-01-10T07:44:57;102880.00;;;-5.70;94.31
60307;BME280;46155;52.364;6.580;2024-01-10T07:47:22;102876.41;;;-5.49;93.79
60307;BME280;46155;52.364;6.580;2024-01-10T07:49:48;102869.31;;;-3.84;100.00
60307;BME280;46155;52.364;6.580;2024-01-10T07:52:13;102880.00;;;-3.64;91.36
60307;BME280;46155;52.364;6.580;2024-01-10T07:54:38;102888.94;;;-4.24;87.66
60307;BME280;46155;52.364;6.580;2024-01-10T07:57:04;102888.31;;;-4.84;88.66
60307;BME280;46155;52.364;6.580;2024-01-10T07:59:29;102883.78;;;-5.19;90.30
60307;BME280;46155;52.364;6.580;2024-01-10T08:01:55;102887.41;;;-5.39;90.34
60307;BME280;46155;52.364;6.580;2024-01-10T08:04:25;102888.53;;;-5.48;91.65
60307;BME280;46155;52.364;6.580;2024-01-10T08:06:51;102889.41;;;-5.10;93.58
60307;BME280;46155;52.364;6.580;2024-01-10T08:09:16;102882.56;;;-5.26;91.39
60307;BME280;46155;52.364;6.580;2024-01-10T08:11:41;102878.75;;;-5.45;91.52
60307;BME280;46155;52.364;6.580;2024-01-10T08:14:07;102880.09;;;-5.53;91.01
60307;BME280;46155;52.364;6.580;2024-01-10T08:16:32;102890.09;;;-5.55;91.47
60307;BME280;46155;52.364;6.580;2024-01-10T08:18:57;102889.22;;;-5.49;92.21
60307;BME280;46155;52.364;6.580;2024-01-10T08:21:24;102882.19;;;-5.56;90.53
60307;BME280;46155;52.364;6.580;2024-01-10T08:23:50;102900.13;;;-5.50;90.60
60307;BME280;46155;52.364;6.580;2024-01-10T08:26:15;102892.69;;;-5.49;92.14
60307;BME280;46155;52.364;6.580;2024-01-10T08:28:40;102897.16;;;-5.42;91.15
60307;BME280;46155;52.364;6.580;2024-01-10T08:31:07;102893.94;;;-5.36;90.68
60307;BME280;46155;52.364;6.580;2024-01-10T08:33:32;102890.97;;;-5.27;90.84
60307;BME280;46155;52.364;6.580;2024-01-10T08:35:57;102904.03;;;-5.20;89.61
60307;BME280;46155;52.364;6.580;2024-01-10T08:38:23;102892.84;;;-5.21;87.08
60307;BME280;46155;52.364;6.580;2024-01-10T08:40:49;102895.66;;;-5.13;86.85
60307;BME280;46155;52.364;6.580;2024-01-10T08:43:14;102884.53;;;-5.08;85.85
60307;BME280;46155;52.364;6.580;2024-01-10T08:45:39;102888.03;;;-5.02;85.38
60307;BME280;46155;52.364;6.580;2024-01-10T08:48:05;102884.09;;;-5.00;84.27
60307;BME280;46155;52.364;6.580;2024-01-10T08:50:32;102877.13;;;-4.95;83.62
60307;BME280;46155;52.364;6.580;2024-01-10T08:52:59;102875.25;;;-4.91;84.37
60307;BME280;46155;52.364;6.580;2024-01-10T08:55:24;102873.41;;;-4.92;84.07
60307;BME280;46155;52.364;6.580;2024-01-10T08:57:49;102874.59;;;-4.84;84.93
60307;BME280;46155;52.364;6.580;2024-01-10T09:00:15;102881.13;;;-4.80;83.50
60307;BME280;46155;52.364;6.580;2024-01-10T09:02:41;102886.72;;;-4.77;81.59
60307;BME280;46155;52.364;6.580;2024-01-10T09:05:07;102873.69;;;-4.73;82.83
60307;BME280;46155;52.364;6.580;2024-01-10T09:07:35;102866.00;;;-4.73;82.65
60307;BME280;46155;52.364;6.580;2024-01-10T09:10:01;102880.25;;;-4.58;82.29
60307;BME280;46155;52.364;6.580;2024-01-10T09:12:26;102886.56;;;-4.51;81.31
60307;BME280;46155;52.364;6.580;2024-01-10T09:14:52;102885.84;;;-4.50;80.80
60307;BME280;46155;52.364;6.580;2024-01-10T09:17:17;102895.41;;;-4.48;79.74
60307;BME280;46155;52.364;6.580;2024-01-10T09:19:42;102878.66;;;-4.46;80.51
60307;BME280;46155;52.364;6.580;2024-01-10T09:22:08;102871.88;;;-4.40;79.94
60307;BME280;46155;52.364;6.580;2024-01-10T09:24:33;102882.63;;;-4.32;79.23
60307;BME280;46155;52.364;6.580;2024-01-10T09:26:58;102881.22;;;-4.29;78.34
60307;BME280;46155;52.364;6.580;2024-01-10T09:29:24;102876.78;;;-4.30;78.29
60307;BME280;46155;52.364;6.580;2024-01-10T09:31:53;102875.84;;;-4.31;77.32
60307;BME280;46155;52.364;6.580;2024-01-10T09:34:18;102877.47;;;-4.26;78.05
60307;BME280;46155;52.364;6.580;2024-01-10T09:36:44;102882.84;;;-4.24;77.46
60307;BME280;46155;52.364;6.580;2024-01-10T09:39:09;102886.38;;;-4.18;77.87
60307;BME280;46155;52.364;6.580;2024-01-10T09:41:46;102881.94;;;-4.13;77.26
60307;BME280;46155;52.364;6.580;2024-01-10T09:44:12;102883.53;;;-4.08;78.28
60307;BME280;46155;52.364;6.580;2024-01-10T09:46:38;102891.97;;;-3.92;77.17
60307;BME280;46155;52.364;6.580;2024-01-10T09:49:06;102889.38;;;-3.87;76.81
60307;BME280;46155;52.364;6.580;2024-01-10T09:51:33;102880.97;;;-3.86;77.06
60307;BME280;46155;52.364;6.580;2024-01-10T09:54:02;102882.59;;;-3.81;77.23
60307;BME280;46155;52.364;6.580;2024-01-10T09:56:28;102890.06;;;-3.76;76.14
60307;BME280;46155;52.364;6.580;2024-01-10T09:58:55;102884.03;;;-3.83;75.64
60307;BME280;46155;52.364;6.580;2024-01-10T10:01:23;102868.84;;;-3.75;76.47
60307;BME280;46155;52.364;6.580;2024-01-10T10:03:49;102868.34;;;-3.67;76.86
60307;BME280;46155;52.364;6.580;2024-01-10T10:06:15;102871.38;;;-3.58;76.06
60307;BME280;46155;52.364;6.580;2024-01-10T10:08:40;102866.00;;;-3.60;73.93
60307;BME280;46155;52.364;6.580;2024-01-10T10:11:07;102872.28;;;-3.52;74.12
60307;BME280;46155;52.364;6.580;2024-01-10T10:13:36;102876.72;;;-3.51;72.59
60307;BME280;46155;52.364;6.580;2024-01-10T10:16:07;102872.72;;;-3.49;72.93
60307;BME280;46155;52.364;6.580;2024-01-10T10:18:33;102865.00;;;-3.43;72.64
60307;BME280;46155;52.364;6.580;2024-01-10T10:21:09;102875.72;;;-3.35;72.37
60307;BME280;46155;52.364;6.580;2024-01-10T10:23:38;102879.22;;;-3.29;71.95
60307;BME280;46155;52.364;6.580;2024-01-10T10:26:17;102876.63;;;-3.23;72.19
60307;BME280;46155;52.364;6.580;2024-01-10T10:28:49;102884.31;;;-3.17;71.29
60307;BME280;46155;52.364;6.580;2024-01-10T10:31:16;102867.69;;;-3.08;72.36
60307;BME280;46155;52.364;6.580;2024-01-10T10:33:42;102865.34;;;-3.12;69.94
60307;BME280;46155;52.364;6.580;2024-01-10T10:36:08;102874.22;;;-3.04;68.56
60307;BME280;46155;52.364;6.580;2024-01-10T10:38:35;102862.31;;;-3.09;69.93
60307;BME280;46155;52.364;6.580;2024-01-10T10:41:05;102864.16;;;-2.97;68.18
60307;BME280;46155;52.364;6.580;2024-01-10T10:43:33;102858.75;;;-2.93;68.92
60307;BME280;46155;52.364;6.580;2024-01-10T10:46:00;102855.00;;;-2.95;67.13
60307;BME280;46155;52.364;6.580;2024-01-10T10:48:32;102828.94;;;-3.15;66.06
60307;BME280;46155;52.364;6.580;2024-01-10T10:51:19;102858.72;;;-2.87;66.97
60307;BME280;46155;52.364;6.580;2024-01-10T10:53:49;102856.81;;;-2.83;66.60
60307;BME280;46155;52.364;6.580;2024-01-10T10:56:15;102875.06;;;-2.87;65.36
60307;BME280;46155;52.364;6.580;2024-01-10T10:58:44;102866.19;;;-2.83;65.78
60307;BME280;46155;52.364;6.580;2024-01-10T11:01:12;102860.56;;;-2.81;65.29
60307;BME280;46155;52.364;6.580;2024-01-10T11:03:40;102866.38;;;-2.76;65.24
60307;BME280;46155;52.364;6.580;2024-01-10T11:06:07;102853.03;;;-2.73;64.42
60307;BME280;46155;52.364;6.580;2024-01-10T11:08:36;102850.66;;;-2.66;63.90
60307;BME280;46155;52.364;6.580;2024-01-10T11:11:07;102858.13;;;-2.62;64.26
60307;BME280;46155;52.364;6.580;2024-01-10T11:14:01;102828.91;;;-2.68;64.54
60307;BME280;46155;52.364;6.580;2024-01-10T11:19:43;102853.94;;;-2.37;65.89
60307;BME280;46155;52.364;6.580;2024-01-10T11:25:20;102848.44;;;-2.22;63.99
60307;BME280;46155;52.364;6.580;2024-01-10T11:27:46;102850.38;;;-2.27;62.56
60307;BME280;46155;52.364;6.580;2024-01-10T11:30:36;102845.72;;;-2.29;62.72
60307;BME280;46155;52.364;6.580;2024-01-10T11:36:07;102841.59;;;-2.16;62.15
60307;BME280;46155;52.364;6.580;2024-01-10T11:38:40;102831.53;;;-2.14;63.44
60307;BME280;46155;52.364;6.580;2024-01-10T11:41:06;102835.28;;;-2.12;61.28
60307;BME280;46155;52.364;6.580;2024-01-10T11:43:31;102827.22;;;-2.02;61.76
60307;BME280;46155;52.364;6.580;2024-01-10T11:45:57;102835.13;;;-1.95;62.39
60307;BME280;46155;52.364;6.580;2024-01-10T11:48:29;102834.63;;;-1.93;61.36
60307;BME280;46155;52.364;6.580;2024-01-10T11:50:57;102823.88;;;-1.96;59.91
60307;BME280;46155;52.364;6.580;2024-01-10T11:53:42;102830.94;;;-2.00;59.98
60307;BME280;46155;52.364;6.580;2024-01-10T11:56:15;102828.38;;;-2.00;59.92
60307;BME280;46155;52.364;6.580;2024-01-10T11:59:03;102836.53;;;-1.97;60.08
60307;BME280;46155;52.364;6.580;2024-01-10T12:01:29;102830.34;;;-1.86;59.92
60307;BME280;46155;52.364;6.580;2024-01-10T12:03:55;102827.06;;;-1.85;59.09
60307;BME280;46155;52.364;6.580;2024-01-10T12:06:21;102832.66;;;-1.82;60.10
60307;BME280;46155;52.364;6.580;2024-01-10T12:08:47;102828.41;;;-1.82;59.46
60307;BME280;46155;52.364;6.580;2024-01-10T12:11:13;102829.31;;;-1.76;59.91
60307;BME280;46155;52.364;6.580;2024-01-10T12:13:38;102822.56;;;-1.81;58.35
60307;BME280;46155;52.364;6.580;2024-01-10T12:16:04;102827.00;;;-1.80;57.50
60307;BME280;46155;52.364;6.580;2024-01-10T12:18:30;102826.00;;;-1.75;58.91
60307;BME280;46155;52.364;6.580;2024-01-10T12:20:55;102817.56;;;-1.74;59.18
60307;BME280;46155;52.364;6.580;2024-01-10T12:23:21;102815.13;;;-1.66;58.72
60307;BME280;46155;52.364;6.580;2024-01-10T12:25:48;102815.28;;;-1.59;58.65
60307;BME280;46155;52.364;6.580;2024-01-10T12:28:17;102815.50;;;-1.58;56.99
60307;BME280;46155;52.364;6.580;2024-01-10T12:30:42;102819.03;;;-1.57;56.94
60307;BME280;46155;52.364;6.580;2024-01-10T12:33:11;102813.16;;;-1.56;57.88
60307;BME280;46155;52.364;6.580;2024-01-10T12:35:36;102800.72;;;-1.53;58.12
60307;BME280;46155;52.364;6.580;2024-01-10T12:38:06;102805.06;;;-1.46;58.66
60307;BME280;46155;52.364;6.580;2024-01-10T12:40:32;102810.53;;;-1.32;57.51
60307;BME280;46155;52.364;6.580;2024-01-10T12:43:04;102806.22;;;-1.26;57.62
60307;BME280;46155;52.364;6.580;2024-01-10T12:45:30;102810.38;;;-1.21;57.96
60307;BME280;46155;52.364;6.580;2024-01-10T12:47:55;102814.31;;;-1.17;56.69
60307;BME280;46155;52.364;6.580;2024-01-10T12:50:20;102801.84;;;-1.14;57.13
60307;BME280;46155;52.364;6.580;2024-01-10T12:52:46;102812.88;;;-1.15;57.33
60307;BME280;46155;52.364;6.580;2024-01-10T12:55:11;102783.75;;;-1.27;56.12
60307;BME280;46155;52.364;6.580;2024-01-10T12:57:37;102810.75;;;-1.12;57.60
60307;BME280;46155;52.364;6.580;2024-01-10T13:00:03;102812.16;;;-1.14;56.81
60307;BME280;46155;52.364;6.580;2024-01-10T13:02:32;102822.03;;;-1.17;55.41
60307;BME280;46155;52.364;6.580;2024-01-10T13:05:00;102811.19;;;-0.77;74.65
60307;BME280;46155;52.364;6.580;2024-01-10T13:07:26;102813.53;;;-0.47;58.27
60307;BME280;46155;52.364;6.580;2024-01-10T13:09:52;102806.94;;;-0.77;56.56
60307;BME280;46155;52.364;6.580;2024-01-10T13:12:19;102809.09;;;-0.80;58.21
60307;BME280;46155;52.364;6.580;2024-01-10T13:14:45;102808.47;;;-0.84;56.78
60307;BME280;46155;52.364;6.580;2024-01-10T13:17:10;102800.53;;;-0.86;56.17
60307;BME280;46155;52.364;6.580;2024-01-10T13:19:36;102798.25;;;-0.90;55.52
60307;BME280;46155;52.364;6.580;2024-01-10T13:22:02;102787.59;;;-0.99;54.78
60307;BME280;46155;52.364;6.580;2024-01-10T13:24:28;102796.38;;;-0.91;55.81
60307;BME280;46155;52.364;6.580;2024-01-10T13:26:55;102794.00;;;-0.90;55.72
60307;BME280;46155;52.364;6.580;2024-01-10T13:29:20;102800.13;;;-0.89;55.25
60307;BME280;46155;52.364;6.580;2024-01-10T13:31:45;102801.94;;;-0.88;55.74
60307;BME280;46155;52.364;6.580;2024-01-10T13:34:13;102800.13;;;-0.89;55.53
60307;BME280;46155;52.364;6.580;2024-01-10T13:36:38;102799.16;;;-0.90;55.84
60307;BME280;46155;52.364;6.580;2024-01-10T13:39:04;102792.09;;;-0.85;56.06
60307;BME280;46155;52.364;6.580;2024-01-10T13:41:29;102788.69;;;-0.78;56.32
60307;BME280;46155;52.364;6.580;2024-01-10T13:43:54;102795.72;;;-0.77;56.05
60307;BME280;46155;52.364;6.580;2024-01-10T13:46:19;102796.63;;;-0.77;56.12
60307;BME280;46155;52.364;6.580;2024-01-10T13:48:45;102789.19;;;-0.81;55.40
60307;BME280;46155;52.364;6.580;2024-01-10T13:51:10;102794.78;;;-0.78;55.07
60307;BME280;46155;52.364;6.580;2024-01-10T13:53:36;102791.06;;;-0.80;54.54
60307;BME280;46155;52.364;6.580;2024-01-10T13:56:01;102792.00;;;-0.79;55.15
60307;BME280;46155;52.364;6.580;2024-01-10T13:58:26;102800.66;;;-0.79;54.94
60307;BME280;46155;52.364;6.580;2024-01-10T14:00:52;102779.41;;;-0.83;55.02
60307;BME280;46155;52.364;6.580;2024-01-10T14:03:17;102794.91;;;-0.71;54.94
60307;BME280;46155;52.364;6.580;2024-01-10T14:05:42;102791.28;;;-0.65;58.45
60307;BME280;46155;52.364;6.580;2024-01-10T14:08:08;102797.31;;;-0.59;55.21
60307;BME280;46155;52.364;6.580;2024-01-10T14:10:36;102780.28;;;-0.64;56.26
60307;BME280;46155;52.364;6.580;2024-01-10T14:13:02;102791.38;;;-0.71;54.84
60307;BME280;46155;52.364;6.580;2024-01-10T14:15:28;102790.47;;;-0.72;54.88
60307;BME280;46155;52.364;6.580;2024-01-10T14:17:54;102778.78;;;-0.75;57.04
60307;BME280;46155;52.364;6.580;2024-01-10T14:20:22;102791.28;;;-0.65;56.81
60307;BME280;46155;52.364;6.580;2024-01-10T14:22:47;102800.00;;;-0.65;54.00
60307;BME280;46155;52.364;6.580;2024-01-10T14:25:12;102794.16;;;-0.70;54.64
60307;BME280;46155;52.364;6.580;2024-01-10T14:27:38;102773.63;;;-0.75;56.20
60307;BME280;46155;52.364;6.580;2024-01-10T14:30:05;102783.44;;;-0.73;55.39
60307;BME280;46155;52.364;6.580;2024-01-10T14:32:33;102790.06;;;-0.75;55.40
60307;BME280;46155;52.364;6.580;2024-01-10T14:34:58;102786.84;;;-0.79;55.39
60307;BME280;46155;52.364;6.580;2024-01-10T14:37:24;102777.94;;;-0.81;55.48
60307;BME280;46155;52.364;6.580;2024-01-10T14:39:49;102782.19;;;-0.82;55.91
60307;BME280;46155;52.364;6.580;2024-01-10T14:42:16;102772.03;;;-0.93;55.85
60307;BME280;46155;52.364;6.580;2024-01-10T14:44:42;102788.34;;;-0.87;55.86
60307;BME280;46155;52.364;6.580;2024-01-10T14:47:08;102787.94;;;-0.90;55.66
60307;BME280;46155;52.364;6.580;2024-01-10T14:49:33;102787.22;;;-0.89;57.04
60307;BME280;46155;52.364;6.580;2024-01-10T14:51:59;102779.56;;;-0.95;56.76
60307;BME280;46155;52.364;6.580;2024-01-10T14:54:24;102795.38;;;-0.86;57.06
60307;BME280;46155;52.364;6.580;2024-01-10T14:56:49;102796.59;;;-0.90;57.16
60307;BME280;46155;52.364;6.580;2024-01-10T14:59:16;102797.09;;;-0.92;57.07
60307;BME280;46155;52.364;6.580;2024-01-10T15:01:45;102800.28;;;-1.00;55.92
60307;BME280;46155;52.364;6.580;2024-01-10T15:04:12;102794.47;;;-1.05;55.75
60307;BME280;46155;52.364;6.580;2024-01-10T15:06:45;102802.41;;;-1.04;56.97
60307;BME280;46155;52.364;6.580;2024-01-10T15:09:10;102804.56;;;-1.07;56.76
60307;BME280;46155;52.364;6.580;2024-01-10T15:11:38;102803.28;;;-1.16;57.13
60307;BME280;46155;52.364;6.580;2024-01-10T15:14:04;102802.56;;;-1.15;57.97
60307;BME280;46155;52.364;6.580;2024-01-10T15:16:29;102814.03;;;-1.13;57.21
60307;BME280;46155;52.364;6.580;2024-01-10T15:18:54;102805.66;;;-1.17;56.76
60307;BME280;46155;52.364;6.580;2024-01-10T15:21:19;102813.25;;;-1.25;56.59
60307;BME280;46155;52.364;6.580;2024-01-10T15:23:45;102802.81;;;-1.32;56.47
60307;BME280;46155;52.364;6.580;2024-01-10T15:26:17;102807.72;;;-1.33;56.93
60307;BME280;46155;52.364;6.580;2024-01-10T15:28:43;102807.09;;;-1.38;57.86
60307;BME280;46155;52.364;6.580;2024-01-10T15:31:17;102808.31;;;-1.42;58.32
60307;BME280;46155;52.364;6.580;2024-01-10T15:33:42;102809.50;;;-1.45;57.77
60307;BME280;46155;52.364;6.580;2024-01-10T15:36:08;102806.94;;;-1.45;58.29
60307;BME280;46155;52.364;6.580;2024-01-10T15:38:36;102807.22;;;-1.49;58.43
60307;BME280;46155;52.364;6.580;2024-01-10T15:41:06;102810.28;;;-1.52;57.93
60307;BME280;46155;52.364;6.580;2024-01-10T15:43:31;102805.88;;;-1.53;58.80
60307;BME280;46155;52.364;6.580;2024-01-10T15:45:57;102813.88;;;-1.57;58.95
60307;BME280;46155;52.364;6.580;2024-01-10T15:48:23;102809.38;;;-1.34;75.11
60307;BME280;46155;52.364;6.580;2024-01-10T15:50:48;102815.97;;;-1.36;59.78
60307;BME280;46155;52.364;6.580;2024-01-10T15:53:13;102815.91;;;-1.49;59.55
60307;BME280;46155;52.364;6.580;2024-01-10T15:55:41;102818.81;;;-1.59;60.09
60307;BME280;46155;52.364;6.580;2024-01-10T15:58:07;102808.38;;;-1.66;59.25
60307;BME280;46155;52.364;6.580;2024-01-10T16:00:32;102811.94;;;-1.71;59.74
60307;BME280;46155;52.364;6.580;2024-01-10T16:02:58;102797.09;;;-1.85;59.83
60307;BME280;46155;52.364;6.580;2024-01-10T16:05:23;102801.31;;;-1.85;60.96
60307;BME280;46155;52.364;6.580;2024-01-10T16:07:49;102822.34;;;-1.82;60.46
60307;BME280;46155;52.364;6.580;2024-01-10T16:10:15;102819.56;;;-1.84;60.63
60307;BME280;46155;52.364;6.580;2024-01-10T16:12:41;102821.69;;;-1.87;60.10
60307;BME280;46155;52.364;6.580;2024-01-10T16:15:06;102815.38;;;-1.89;61.02
60307;BME280;46155;52.364;6.580;2024-01-10T16:17:33;102818.66;;;-1.90;61.46
60307;BME280;46155;52.364;6.580;2024-01-10T16:19:58;102819.88;;;-1.94;61.68
60307;BME280;46155;52.364;6.580;2024-01-10T16:22:23;102818.72;;;-1.96;61.58
60307;BME280;46155;52.364;6.580;2024-01-10T16:24:49;102818.78;;;-2.01;62.09
60307;BME280;46155;52.364;6.580;2024-01-10T16:27:14;102822.09;;;-2.02;62.29
60307;BME280;46155;52.364;6.580;2024-01-10T16:29:39;102819.78;;;-2.06;62.46
60307;BME280;46155;52.364;6.580;2024-01-10T16:32:05;102818.38;;;-2.10;62.49
60307;BME280;46155;52.364;6.580;2024-01-10T16:34:31;102829.41;;;-2.11;63.88
60307;BME280;46155;52.364;6.580;2024-01-10T16:36:56;102817.09;;;-2.19;64.18
60307;BME280;46155;52.364;6.580;2024-01-10T16:39:21;102829.69;;;-2.15;65.13
60307;BME280;46155;52.364;6.580;2024-01-10T16:41:47;102834.16;;;-2.20;64.02
60307;BME280;46155;52.364;6.580;2024-01-10T16:44:12;102833.00;;;-2.22;64.81
60307;BME280;46155;52.364;6.580;2024-01-10T16:46:38;102836.72;;;-2.20;64.78
60307;BME280;46155;52.364;6.580;2024-01-10T16:49:03;102816.22;;;-2.31;64.38
60307;BME280;46155;52.364;6.580;2024-01-10T16:51:28;102839.47;;;-2.13;65.64
60307;BME280;46155;52.364;6.580;2024-01-10T16:53:54;102843.69;;;-2.13;65.37
60307;BME280;46155;52.364;6.580;2024-01-10T16:56:19;102833.72;;;-2.23;64.65